Details for EasyJet at EGCC




Go Back


Latest METAR
Local Time

EGCC 241350Z AUTO 09008KT 040V180 9999 NCD 06/M06 Q1023 NOSIG

24/02/2018, 14:08:11

Description
Results
EasyJet Logo
Number of Pilots based at EGCC
2 Pilots Based here
Number of EasyJet Flights Departed from EGCC
11 Flights Departed
Number of EasyJet Flights Arrived at EGCC
6 Flights Arrived
Number of EasyJet Schedules Departing from EGCC
126 Schedules
Number of EasyJet Schedules Arriving at EGCC
127 Schedules
Number of EasyJet Schedules Departing from EGCC availible today
33 Schedules Today
Number of EasyJet Schedules Arriving at EGCC availible today
34 Schedules Today
Average Landing Rate at EGCC
-218 fpm
EasyJet Average Landing Rate at EGCC
-277 fpm
Total Fuel Purchased at EGCC by EasyJet
31,745.57 kgs / 69,986.28 lbs

Pilots Based at EGCC


Pilot ID
Pilot Name
Pilot Rank
No. of Flights
No. of Flying Hours
Kevin Himsworth
7
14.38
Andrew Sutcliffe
333
1262.36
Content